Tonopah Airport Tonopah US
ICAO: KTPH
IATA: TPH
Category: Medium
Scheduled Services: No

Elevation: 5430 ft
TransAlt. 18000 ft.

Airport Communications:
ASOS:118.875
SALT LAKE CNTR:133.45
RENO RDO:122.6
CTAF/UNICOM:123

KTPH Zoom In..

If you have problems with the map follow the link
https://www.worldairports.se/pages/airport.php?
ICAO=KTPH

Runways:

(A) RW 11 length 6195 ft width 50 ft
---- / hdg 110

(B) RW 15 length 7158 ft width 80 ft
---- / hdg 150

(C) RW 29 length 6195 ft width 50 ft
---- / hdg 290

(D) RW 33 length 7158 ft width 80 ft
---- / hdg 330

Location; KTPH
Day. 11 / Time. 12.56 Zulu
* Altimeter: 30.20
* Temperature: 00° c. 32°f.
* Wind from: KTP° Speed H kn.
Dewpoint: -03° c.
Visibility: 10 Statute Miles.
Clouds: Overcast 1000 ft.

KTPH 111256Z AUTO 00000KT 10SM OVC100 00/M03 A3020 RMK AO2 SLP232 T00001033


Wind From KTP°
Speed H kn.

 
 
jpsmedia worldairports.se 2019   terms of use